sensor_id;sensor_type;location;lat;lon;timestamp;P1;durP1;ratioP1;P2;durP2;ratioP2
12970;SDS011;6550;48.650;8.774;2023-04-15T00:01:09;4.93;;;1.60;;
12970;SDS011;6550;48.650;8.774;2023-04-15T00:03:40;6.27;;;1.60;;
12970;SDS011;6550;48.650;8.774;2023-04-15T00:06:10;3.93;;;1.90;;
12970;SDS011;6550;48.650;8.774;2023-04-15T00:08:36;2.50;;;1.53;;
12970;SDS011;6550;48.650;8.774;2023-04-15T00:11:03;4.13;;;1.50;;
12970;SDS011;6550;48.650;8.774;2023-04-15T00:13:31;1.73;;;1.60;;
12970;SDS011;6550;48.650;8.774;2023-04-15T00:16:01;2.93;;;1.60;;
12970;SDS011;6550;48.650;8.774;2023-04-15T00:18:27;2.77;;;1.60;;
12970;SDS011;6550;48.650;8.774;2023-04-15T00:20:55;2.60;;;1.70;;
12970;SDS011;6550;48.650;8.774;2023-04-15T00:23:21;3.28;;;1.90;;
12970;SDS011;6550;48.650;8.774;2023-04-15T00:25:50;1.63;;;1.50;;
12970;SDS011;6550;48.650;8.774;2023-04-15T00:28:17;3.10;;;1.60;;
12970;SDS011;6550;48.650;8.774;2023-04-15T00:30:46;4.03;;;1.80;;
12970;SDS011;6550;48.650;8.774;2023-04-15T00:33:15;12.20;;;1.70;;
12970;SDS011;6550;48.650;8.774;2023-04-15T00:35:42;2.40;;;1.57;;
12970;SDS011;6550;48.650;8.774;2023-04-15T00:38:11;2.30;;;1.70;;
12970;SDS011;6550;48.650;8.774;2023-04-15T00:40:38;3.63;;;1.73;;
12970;SDS011;6550;48.650;8.774;2023-04-15T00:43:06;4.73;;;1.40;;
12970;SDS011;6550;48.650;8.774;2023-04-15T00:45:35;3.53;;;1.77;;
12970;SDS011;6550;48.650;8.774;2023-04-15T00:48:02;2.87;;;1.77;;
12970;SDS011;6550;48.650;8.774;2023-04-15T00:50:32;2.63;;;1.47;;
12970;SDS011;6550;48.650;8.774;2023-04-15T00:53:01;7.63;;;1.90;;
12970;SDS011;6550;48.650;8.774;2023-04-15T00:55:28;3.17;;;1.50;;
12970;SDS011;6550;48.650;8.774;2023-04-15T00:57:55;2.53;;;1.57;;
12970;SDS011;6550;48.650;8.774;2023-04-15T01:00:27;3.53;;;1.40;;
12970;SDS011;6550;48.650;8.774;2023-04-15T01:02:57;2.30;;;1.70;;
12970;SDS011;6550;48.650;8.774;2023-04-15T01:05:24;4.67;;;1.77;;
12970;SDS011;6550;48.650;8.774;2023-04-15T01:07:52;3.67;;;1.80;;
12970;SDS011;6550;48.650;8.774;2023-04-15T01:10:21;4.30;;;1.53;;
12970;SDS011;6550;48.650;8.774;2023-04-15T01:12:48;2.43;;;1.83;;
12970;SDS011;6550;48.650;8.774;2023-04-15T01:15:14;2.70;;;1.57;;
12970;SDS011;6550;48.650;8.774;2023-04-15T01:17:41;4.63;;;1.70;;
12970;SDS011;6550;48.650;8.774;2023-04-15T01:20:11;2.30;;;1.80;;
12970;SDS011;6550;48.650;8.774;2023-04-15T01:22:43;3.07;;;1.90;;
12970;SDS011;6550;48.650;8.774;2023-04-15T01:25:16;1.63;;;1.50;;
12970;SDS011;6550;48.650;8.774;2023-04-15T01:27:46;3.13;;;1.70;;
12970;SDS011;6550;48.650;8.774;2023-04-15T01:30:16;2.47;;;1.70;;
12970;SDS011;6550;48.650;8.774;2023-04-15T01:32:43;3.73;;;2.10;;
12970;SDS011;6550;48.650;8.774;2023-04-15T01:35:12;2.87;;;1.83;;
12970;SDS011;6550;48.650;8.774;2023-04-15T01:37:39;1.70;;;1.60;;
12970;SDS011;6550;48.650;8.774;2023-04-15T01:40:11;2.80;;;1.73;;
12970;SDS011;6550;48.650;8.774;2023-04-15T01:42:40;3.67;;;1.90;;
12970;SDS011;6550;48.650;8.774;2023-04-15T01:45:10;2.13;;;1.83;;
12970;SDS011;6550;48.650;8.774;2023-04-15T01:47:40;2.63;;;1.80;;
12970;SDS011;6550;48.650;8.774;2023-04-15T01:50:07;4.27;;;2.00;;
12970;SDS011;6550;48.650;8.774;2023-04-15T01:52:34;3.37;;;1.90;;
12970;SDS011;6550;48.650;8.774;2023-04-15T01:55:01;3.80;;;2.20;;
12970;SDS011;6550;48.650;8.774;2023-04-15T01:57:28;14.93;;;1.87;;
12970;SDS011;6550;48.650;8.774;2023-04-15T01:59:54;3.30;;;1.90;;
12970;SDS011;6550;48.650;8.774;2023-04-15T02:02:24;3.95;;;1.90;;
12970;SDS011;6550;48.650;8.774;2023-04-15T02:04:56;1.57;;;1.47;;
12970;SDS011;6550;48.650;8.774;2023-04-15T02:07:25;3.07;;;1.70;;
12970;SDS011;6550;48.650;8.774;2023-04-15T02:09:54;1.90;;;1.60;;
12970;SDS011;6550;48.650;8.774;2023-04-15T02:12:20;2.37;;;1.60;;
12970;SDS011;6550;48.650;8.774;2023-04-15T02:14:47;2.63;;;1.70;;
12970;SDS011;6550;48.650;8.774;2023-04-15T02:17:14;1.73;;;1.60;;
12970;SDS011;6550;48.650;8.774;2023-04-15T02:19:42;6.00;;;1.97;;
12970;SDS011;6550;48.650;8.774;2023-04-15T02:22:09;2.93;;;1.97;;
12970;SDS011;6550;48.650;8.774;2023-04-15T02:24:40;3.07;;;1.90;;
12970;SDS011;6550;48.650;8.774;2023-04-15T02:27:06;2.20;;;1.80;;
12970;SDS011;6550;48.650;8.774;2023-04-15T02:29:33;2.33;;;1.80;;
12970;SDS011;6550;48.650;8.774;2023-04-15T02:32:00;5.00;;;1.70;;
12970;SDS011;6550;48.650;8.774;2023-04-15T02:34:27;4.17;;;1.90;;
12970;SDS011;6550;48.650;8.774;2023-04-15T02:36:56;3.23;;;1.80;;
12970;SDS011;6550;48.650;8.774;2023-04-15T02:39:22;2.07;;;1.70;;
12970;SDS011;6550;48.650;8.774;2023-04-15T02:41:49;2.33;;;1.53;;
12970;SDS011;6550;48.650;8.774;2023-04-15T02:44:19;4.53;;;1.98;;
12970;SDS011;6550;48.650;8.774;2023-04-15T02:46:48;2.80;;;1.77;;
12970;SDS011;6550;48.650;8.774;2023-04-15T02:49:17;1.53;;;1.43;;
12970;SDS011;6550;48.650;8.774;2023-04-15T02:51:46;2.07;;;1.70;;
12970;SDS011;6550;48.650;8.774;2023-04-15T02:54:17;2.57;;;2.00;;
12970;SDS011;6550;48.650;8.774;2023-04-15T02:56:45;3.07;;;2.17;;
12970;SDS011;6550;48.650;8.774;2023-04-15T02:59:12;2.10;;;1.90;;
12970;SDS011;6550;48.650;8.774;2023-04-15T03:01:38;3.13;;;1.97;;
12970;SDS011;6550;48.650;8.774;2023-04-15T03:04:07;4.77;;;1.97;;
12970;SDS011;6550;48.650;8.774;2023-04-15T03:06:34;1.80;;;1.70;;
12970;SDS011;6550;48.650;8.774;2023-04-15T03:09:01;2.10;;;1.90;;
12970;SDS011;6550;48.650;8.774;2023-04-15T03:11:28;3.97;;;1.37;;
12970;SDS011;6550;48.650;8.774;2023-04-15T03:13:56;5.83;;;1.83;;
12970;SDS011;6550;48.650;8.774;2023-04-15T03:16:24;1.60;;;1.37;;
12970;SDS011;6550;48.650;8.774;2023-04-15T03:18:50;2.87;;;1.70;;
12970;SDS011;6550;48.650;8.774;2023-04-15T03:21:19;4.63;;;1.63;;
12970;SDS011;6550;48.650;8.774;2023-04-15T03:23:49;1.70;;;1.43;;
12970;SDS011;6550;48.650;8.774;2023-04-15T03:26:28;2.30;;;1.80;;
12970;SDS011;6550;48.650;8.774;2023-04-15T03:28:58;2.33;;;1.60;;
12970;SDS011;6550;48.650;8.774;2023-04-15T03:31:28;2.37;;;1.50;;
12970;SDS011;6550;48.650;8.774;2023-04-15T03:33:55;2.90;;;1.77;;
12970;SDS011;6550;48.650;8.774;2023-04-15T03:36:24;2.47;;;1.63;;
12970;SDS011;6550;48.650;8.774;2023-04-15T03:38:51;1.90;;;1.70;;
12970;SDS011;6550;48.650;8.774;2023-04-15T03:41:18;2.43;;;1.60;;
12970;SDS011;6550;48.650;8.774;2023-04-15T03:43:44;2.90;;;1.90;;
12970;SDS011;6550;48.650;8.774;2023-04-15T03:46:11;2.60;;;1.57;;
12970;SDS011;6550;48.650;8.774;2023-04-15T03:48:38;2.10;;;1.60;;
12970;SDS011;6550;48.650;8.774;2023-04-15T03:51:07;3.57;;;1.80;;
12970;SDS011;6550;48.650;8.774;2023-04-15T03:53:33;1.57;;;1.43;;
12970;SDS011;6550;48.650;8.774;2023-04-15T03:56:00;1.73;;;1.60;;
12970;SDS011;6550;48.650;8.774;2023-04-15T03:58:29;1.87;;;1.47;;
12970;SDS011;6550;48.650;8.774;2023-04-15T04:00:56;2.20;;;1.60;;
12970;SDS011;6550;48.650;8.774;2023-04-15T04:03:23;1.50;;;1.40;;
12970;SDS011;6550;48.650;8.774;2023-04-15T04:05:52;3.10;;;1.43;;
12970;SDS011;6550;48.650;8.774;2023-04-15T04:08:21;2.43;;;1.60;;
12970;SDS011;6550;48.650;8.774;2023-04-15T04:10:50;3.72;;;1.70;;
12970;SDS011;6550;48.650;8.774;2023-04-15T04:13:17;2.50;;;1.63;;
12970;SDS011;6550;48.650;8.774;2023-04-15T04:15:46;6.50;;;2.00;;
12970;SDS011;6550;48.650;8.774;2023-04-15T04:18:15;4.37;;;1.67;;
12970;SDS011;6550;48.650;8.774;2023-04-15T04:20:44;3.27;;;1.40;;
12970;SDS011;6550;48.650;8.774;2023-04-15T04:23:13;7.37;;;1.60;;
12970;SDS011;6550;48.650;8.774;2023-04-15T04:25:40;2.93;;;1.60;;
12970;SDS011;6550;48.650;8.774;2023-04-15T04:28:07;6.90;;;1.67;;
12970;SDS011;6550;48.650;8.774;2023-04-15T04:30:34;2.60;;;1.50;;
12970;SDS011;6550;48.650;8.774;2023-04-15T04:33:03;1.67;;;1.57;;
12970;SDS011;6550;48.650;8.774;2023-04-15T04:35:30;2.00;;;1.50;;
12970;SDS011;6550;48.650;8.774;2023-04-15T04:38:00;2.83;;;1.30;;
12970;SDS011;6550;48.650;8.774;2023-04-15T04:40:26;9.17;;;1.87;;
12970;SDS011;6550;48.650;8.774;2023-04-15T04:42:56;3.73;;;1.70;;
12970;SDS011;6550;48.650;8.774;2023-04-15T04:45:25;10.20;;;2.00;;
12970;SDS011;6550;48.650;8.774;2023-04-15T04:47:52;3.90;;;1.80;;
12970;SDS011;6550;48.650;8.774;2023-04-15T04:50:21;2.20;;;1.60;;
12970;SDS011;6550;48.650;8.774;2023-04-15T04:52:48;3.03;;;1.63;;
12970;SDS011;6550;48.650;8.774;2023-04-15T04:55:14;4.53;;;1.83;;
12970;SDS011;6550;48.650;8.774;2023-04-15T04:57:41;6.57;;;2.20;;
12970;SDS011;6550;48.650;8.774;2023-04-15T05:00:08;4.57;;;1.87;;
12970;SDS011;6550;48.650;8.774;2023-04-15T05:02:35;11.87;;;2.00;;
12970;SDS011;6550;48.650;8.774;2023-04-15T05:05:02;7.87;;;2.20;;
12970;SDS011;6550;48.650;8.774;2023-04-15T05:07:32;6.40;;;1.90;;
12970;SDS011;6550;48.650;8.774;2023-04-15T05:10:01;11.13;;;2.20;;
12970;SDS011;6550;48.650;8.774;2023-04-15T05:12:28;21.87;;;3.33;;
12970;SDS011;6550;48.650;8.774;2023-04-15T05:14:57;9.57;;;2.73;;
12970;SDS011;6550;48.650;8.774;2023-04-15T05:17:26;6.57;;;2.20;;
12970;SDS011;6550;48.650;8.774;2023-04-15T05:19:53;71.37;;;7.07;;
12970;SDS011;6550;48.650;8.774;2023-04-15T05:22:20;37.33;;;4.67;;
12970;SDS011;6550;48.650;8.774;2023-04-15T05:24:49;38.97;;;4.33;;
12970;SDS011;6550;48.650;8.774;2023-04-15T05:27:20;46.43;;;4.37;;
12970;SDS011;6550;48.650;8.774;2023-04-15T05:29:50;12.53;;;3.03;;
12970;SDS011;6550;48.650;8.774;2023-04-15T05:32:17;20.00;;;3.83;;
12970;SDS011;6550;48.650;8.774;2023-04-15T05:34:44;10.73;;;2.60;;
12970;SDS011;6550;48.650;8.774;2023-04-15T05:37:10;21.90;;;3.23;;
12970;SDS011;6550;48.650;8.774;2023-04-15T05:39:37;9.20;;;2.40;;
12970;SDS011;6550;48.650;8.774;2023-04-15T05:42:13;8.67;;;3.47;;
12970;SDS011;6550;48.650;8.774;2023-04-15T05:44:40;24.47;;;2.40;;
12970;SDS011;6550;48.650;8.774;2023-04-15T05:47:10;17.20;;;2.60;;
12970;SDS011;6550;48.650;8.774;2023-04-15T05:49:41;9.67;;;2.60;;
12970;SDS011;6550;48.650;8.774;2023-04-15T05:52:12;13.07;;;2.20;;
12970;SDS011;6550;48.650;8.774;2023-04-15T05:54:38;5.23;;;1.97;;
12970;SDS011;6550;48.650;8.774;2023-04-15T05:57:08;5.90;;;1.90;;
12970;SDS011;6550;48.650;8.774;2023-04-15T05:59:34;22.83;;;3.90;;
12970;SDS011;6550;48.650;8.774;2023-04-15T06:02:01;26.33;;;3.57;;
12970;SDS011;6550;48.650;8.774;2023-04-15T06:04:28;19.52;;;3.50;;
12970;SDS011;6550;48.650;8.774;2023-04-15T06:06:55;24.67;;;3.57;;
12970;SDS011;6550;48.650;8.774;2023-04-15T06:09:22;33.77;;;4.20;;
12970;SDS011;6550;48.650;8.774;2023-04-15T06:11:49;23.07;;;4.53;;
12970;SDS011;6550;48.650;8.774;2023-04-15T06:14:19;15.97;;;3.60;;
12970;SDS011;6550;48.650;8.774;2023-04-15T06:16:50;28.57;;;3.87;;
12970;SDS011;6550;48.650;8.774;2023-04-15T06:19:17;21.67;;;3.57;;
12970;SDS011;6550;48.650;8.774;2023-04-15T06:21:44;25.77;;;4.40;;
12970;SDS011;6550;48.650;8.774;2023-04-15T06:24:11;20.60;;;4.07;;
12970;SDS011;6550;48.650;8.774;2023-04-15T06:26:38;23.43;;;3.37;;
12970;SDS011;6550;48.650;8.774;2023-04-15T06:29:05;10.87;;;3.07;;
12970;SDS011;6550;48.650;8.774;2023-04-15T06:31:32;9.93;;;3.03;;
12970;SDS011;6550;48.650;8.774;2023-04-15T06:34:01;12.10;;;2.70;;
12970;SDS011;6550;48.650;8.774;2023-04-15T06:36:28;11.43;;;2.63;;
12970;SDS011;6550;48.650;8.774;2023-04-15T06:38:55;15.87;;;3.00;;
12970;SDS011;6550;48.650;8.774;2023-04-15T06:41:22;6.77;;;2.73;;
12970;SDS011;6550;48.650;8.774;2023-04-15T06:43:49;7.07;;;2.63;;
12970;SDS011;6550;48.650;8.774;2023-04-15T06:46:16;12.60;;;3.58;;
12970;SDS011;6550;48.650;8.774;2023-04-15T06:48:43;18.03;;;3.30;;
12970;SDS011;6550;48.650;8.774;2023-04-15T06:51:10;11.07;;;2.73;;
12970;SDS011;6550;48.650;8.774;2023-04-15T06:53:39;17.77;;;4.00;;
12970;SDS011;6550;48.650;8.774;2023-04-15T06:56:07;16.93;;;3.53;;
12970;SDS011;6550;48.650;8.774;2023-04-15T06:58:36;19.70;;;3.27;;
12970;SDS011;6550;48.650;8.774;2023-04-15T07:01:05;23.07;;;3.30;;
12970;SDS011;6550;48.650;8.774;2023-04-15T07:03:32;27.67;;;3.10;;
12970;SDS011;6550;48.650;8.774;2023-04-15T07:06:01;19.97;;;3.50;;
12970;SDS011;6550;48.650;8.774;2023-04-15T07:08:32;15.60;;;3.60;;
12970;SDS011;6550;48.650;8.774;2023-04-15T07:10:59;17.20;;;3.93;;
12970;SDS011;6550;48.650;8.774;2023-04-15T07:13:26;8.93;;;2.77;;
12970;SDS011;6550;48.650;8.774;2023-04-15T07:15:55;8.37;;;2.53;;
12970;SDS011;6550;48.650;8.774;2023-04-15T07:18:22;8.17;;;2.50;;
12970;SDS011;6550;48.650;8.774;2023-04-15T07:20:49;9.07;;;2.30;;
12970;SDS011;6550;48.650;8.774;2023-04-15T07:23:18;7.57;;;2.13;;
12970;SDS011;6550;48.650;8.774;2023-04-15T07:25:46;6.37;;;2.57;;
12970;SDS011;6550;48.650;8.774;2023-04-15T07:28:14;16.90;;;8.93;;
12970;SDS011;6550;48.650;8.774;2023-04-15T07:30:43;14.37;;;7.43;;
12970;SDS011;6550;48.650;8.774;2023-04-15T07:33:10;14.00;;;7.63;;
12970;SDS011;6550;48.650;8.774;2023-04-15T07:35:39;15.10;;;7.20;;
12970;SDS011;6550;48.650;8.774;2023-04-15T07:38:08;13.10;;;7.10;;
12970;SDS011;6550;48.650;8.774;2023-04-15T07:40:38;10.67;;;7.30;;
12970;SDS011;6550;48.650;8.774;2023-04-15T07:43:07;10.03;;;6.43;;
12970;SDS011;6550;48.650;8.774;2023-04-15T07:45:35;12.03;;;7.63;;
12970;SDS011;6550;48.650;8.774;2023-04-15T07:48:04;15.63;;;7.23;;
12970;SDS011;6550;48.650;8.774;2023-04-15T07:50:31;18.00;;;6.73;;
12970;SDS011;6550;48.650;8.774;2023-04-15T07:53:01;14.40;;;6.63;;
12970;SDS011;6550;48.650;8.774;2023-04-15T07:55:28;8.67;;;6.27;;
12970;SDS011;6550;48.650;8.774;2023-04-15T07:57:59;18.70;;;6.63;;
12970;SDS011;6550;48.650;8.774;2023-04-15T08:00:26;15.03;;;5.80;;
12970;SDS011;6550;48.650;8.774;2023-04-15T08:02:55;28.20;;;6.70;;
12970;SDS011;6550;48.650;8.774;2023-04-15T08:05:24;12.77;;;5.30;;
12970;SDS011;6550;48.650;8.774;2023-04-15T08:07:51;22.73;;;6.77;;
12970;SDS011;6550;48.650;8.774;2023-04-15T08:10:20;27.77;;;7.27;;
12970;SDS011;6550;48.650;8.774;2023-04-15T08:12:49;16.90;;;7.13;;
12970;SDS011;6550;48.650;8.774;2023-04-15T08:15:19;13.03;;;6.37;;
12970;SDS011;6550;48.650;8.774;2023-04-15T08:17:49;15.53;;;7.43;;
12970;SDS011;6550;48.650;8.774;2023-04-15T08:20:18;15.70;;;7.97;;
12970;SDS011;6550;48.650;8.774;2023-04-15T08:22:45;16.10;;;7.47;;
12970;SDS011;6550;48.650;8.774;2023-04-15T08:25:19;23.40;;;8.45;;
12970;SDS011;6550;48.650;8.774;2023-04-15T08:27:46;27.63;;;8.37;;
12970;SDS011;6550;48.650;8.774;2023-04-15T08:30:16;16.20;;;7.23;;
12970;SDS011;6550;48.650;8.774;2023-04-15T08:32:44;17.13;;;7.10;;
12970;SDS011;6550;48.650;8.774;2023-04-15T08:35:16;14.07;;;6.37;;
12970;SDS011;6550;48.650;8.774;2023-04-15T08:37:43;13.40;;;6.53;;
12970;SDS011;6550;48.650;8.774;2023-04-15T08:40:12;11.00;;;5.80;;
12970;SDS011;6550;48.650;8.774;2023-04-15T08:42:45;13.00;;;5.97;;
12970;SDS011;6550;48.650;8.774;2023-04-15T08:45:20;15.55;;;5.70;;
12970;SDS011;6550;48.650;8.774;2023-04-15T08:47:48;11.70;;;5.10;;
12970;SDS011;6550;48.650;8.774;2023-04-15T08:50:20;15.37;;;5.13;;
12970;SDS011;6550;48.650;8.774;2023-04-15T08:52:53;13.83;;;4.37;;
12970;SDS011;6550;48.650;8.774;2023-04-15T08:55:21;9.53;;;4.60;;
12970;SDS011;6550;48.650;8.774;2023-04-15T08:57:51;8.30;;;4.57;;
12970;SDS011;6550;48.650;8.774;2023-04-15T09:00:18;7.13;;;3.67;;
12970;SDS011;6550;48.650;8.774;2023-04-15T09:02:45;6.23;;;3.63;;
12970;SDS011;6550;48.650;8.774;2023-04-15T09:05:14;5.73;;;3.17;;
12970;SDS011;6550;48.650;8.774;2023-04-15T09:07:42;7.10;;;3.53;;
12970;SDS011;6550;48.650;8.774;2023-04-15T09:10:09;6.77;;;3.30;;
12970;SDS011;6550;48.650;8.774;2023-04-15T09:12:39;7.90;;;3.10;;
12970;SDS011;6550;48.650;8.774;2023-04-15T09:15:06;7.97;;;3.50;;
12970;SDS011;6550;48.650;8.774;2023-04-15T09:17:36;7.30;;;3.07;;
12970;SDS011;6550;48.650;8.774;2023-04-15T09:20:16;9.27;;;3.35;;
12970;SDS011;6550;48.650;8.774;2023-04-15T09:22:46;8.20;;;3.50;;
12970;SDS011;6550;48.650;8.774;2023-04-15T09:27:47;5.27;;;2.57;;
12970;SDS011;6550;48.650;8.774;2023-04-15T09:30:17;5.30;;;2.60;;
12970;SDS011;6550;48.650;8.774;2023-04-15T09:32:50;6.30;;;2.47;;
12970;SDS011;6550;48.650;8.774;2023-04-15T09:35:23;5.43;;;3.30;;
12970;SDS011;6550;48.650;8.774;2023-04-15T09:38:01;7.40;;;3.73;;
12970;SDS011;6550;48.650;8.774;2023-04-15T09:40:32;5.27;;;3.40;;
12970;SDS011;6550;48.650;8.774;2023-04-15T09:43:03;6.93;;;3.00;;
12970;SDS011;6550;48.650;8.774;2023-04-15T09:45:31;6.13;;;4.30;;
12970;SDS011;6550;48.650;8.774;2023-04-15T09:48:14;21.67;;;5.57;;
12970;SDS011;6550;48.650;8.774;2023-04-15T09:50:42;8.57;;;4.53;;
12970;SDS011;6550;48.650;8.774;2023-04-15T09:53:18;18.57;;;4.40;;
12970;SDS011;6550;48.650;8.774;2023-04-15T09:55:49;11.37;;;3.93;;
12970;SDS011;6550;48.650;8.774;2023-04-15T09:58:21;10.43;;;3.10;;
12970;SDS011;6550;48.650;8.774;2023-04-15T10:00:53;6.90;;;2.53;;
12970;SDS011;6550;48.650;8.774;2023-04-15T10:03:26;7.70;;;2.20;;
12970;SDS011;6550;48.650;8.774;2023-04-15T10:05:55;12.70;;;3.03;;
12970;SDS011;6550;48.650;8.774;2023-04-15T10:08:23;22.80;;;2.90;;
12970;SDS011;6550;48.650;8.774;2023-04-15T10:10:54;21.27;;;2.77;;
12970;SDS011;6550;48.650;8.774;2023-04-15T10:13:24;13.00;;;2.67;;
12970;SDS011;6550;48.650;8.774;2023-04-15T10:15:58;6.57;;;2.07;;
12970;SDS011;6550;48.650;8.774;2023-04-15T10:18:28;9.40;;;1.77;;
12970;SDS011;6550;48.650;8.774;2023-04-15T10:20:59;2.33;;;1.23;;
12970;SDS011;6550;48.650;8.774;2023-04-15T10:23:26;5.37;;;1.80;;
12970;SDS011;6550;48.650;8.774;2023-04-15T10:25:58;2.90;;;1.30;;
12970;SDS011;6550;48.650;8.774;2023-04-15T10:28:26;6.43;;;1.48;;
12970;SDS011;6550;48.650;8.774;2023-04-15T10:30:53;3.93;;;1.40;;
12970;SDS011;6550;48.650;8.774;2023-04-15T10:33:23;7.90;;;1.40;;
12970;SDS011;6550;48.650;8.774;2023-04-15T10:35:53;17.63;;;2.33;;
12970;SDS011;6550;48.650;8.774;2023-04-15T10:38:38;15.47;;;2.13;;
12970;SDS011;6550;48.650;8.774;2023-04-15T10:43:49;7.37;;;2.10;;
12970;SDS011;6550;48.650;8.774;2023-04-15T10:46:34;3.13;;;1.53;;
12970;SDS011;6550;48.650;8.774;2023-04-15T10:49:07;15.20;;;2.03;;
12970;SDS011;6550;48.650;8.774;2023-04-15T10:51:36;8.37;;;1.30;;
12970;SDS011;6550;48.650;8.774;2023-04-15T10:54:13;5.20;;;1.23;;
12970;SDS011;6550;48.650;8.774;2023-04-15T10:59:37;21.03;;;1.90;;
12970;SDS011;6550;48.650;8.774;2023-04-15T11:05:10;8.73;;;1.77;;
12970;SDS011;6550;48.650;8.774;2023-04-15T11:15:30;2.40;;;1.23;;
12970;SDS011;6550;48.650;8.774;2023-04-15T11:20:41;4.60;;;1.70;;
12970;SDS011;6550;48.650;8.774;2023-04-15T11:23:11;8.30;;;1.57;;
12970;SDS011;6550;48.650;8.774;2023-04-15T11:25:40;10.57;;;1.80;;
12970;SDS011;6550;48.650;8.774;2023-04-15T11:28:11;8.53;;;1.87;;
12970;SDS011;6550;48.650;8.774;2023-04-15T11:30:39;7.63;;;1.60;;
12970;SDS011;6550;48.650;8.774;2023-04-15T11:33:08;6.97;;;1.40;;
12970;SDS011;6550;48.650;8.774;2023-04-15T11:35:40;4.80;;;1.63;;
12970;SDS011;6550;48.650;8.774;2023-04-15T11:38:08;2.20;;;1.40;;
12970;SDS011;6550;48.650;8.774;2023-04-15T11:40:39;3.00;;;1.70;;
12970;SDS011;6550;48.650;8.774;2023-04-15T11:43:17;6.00;;;3.17;;
12970;SDS011;6550;48.650;8.774;2023-04-15T11:48:30;3.00;;;1.90;;
12970;SDS011;6550;48.650;8.774;2023-04-15T11:51:01;2.10;;;1.60;;
12970;SDS011;6550;48.650;8.774;2023-04-15T11:56:08;2.80;;;1.53;;
12970;SDS011;6550;48.650;8.774;2023-04-15T11:58:43;8.80;;;1.80;;
12970;SDS011;6550;48.650;8.774;2023-04-15T12:01:12;2.00;;;1.50;;
12970;SDS011;6550;48.650;8.774;2023-04-15T12:03:40;2.60;;;1.60;;
12970;SDS011;6550;48.650;8.774;2023-04-15T12:16:48;4.37;;;1.40;;
12970;SDS011;6550;48.650;8.774;2023-04-15T12:20:00;3.07;;;1.50;;
12970;SDS011;6550;48.650;8.774;2023-04-15T12:22:11;6.17;;;1.30;;
12970;SDS011;6550;48.650;8.774;2023-04-15T12:24:42;6.43;;;1.60;;
12970;SDS011;6550;48.650;8.774;2023-04-15T12:27:13;8.57;;;1.80;;
12970;SDS011;6550;48.650;8.774;2023-04-15T12:29:43;8.73;;;1.77;;
12970;SDS011;6550;48.650;8.774;2023-04-15T12:32:10;22.53;;;2.83;;
12970;SDS011;6550;48.650;8.774;2023-04-15T12:37:15;7.47;;;1.70;;
12970;SDS011;6550;48.650;8.774;2023-04-15T12:39:45;6.10;;;1.67;;
12970;SDS011;6550;48.650;8.774;2023-04-15T12:42:14;5.57;;;2.00;;
12970;SDS011;6550;48.650;8.774;2023-04-15T12:44:41;5.00;;;1.80;;
12970;SDS011;6550;48.650;8.774;2023-04-15T12:47:09;2.57;;;1.60;;
12970;SDS011;6550;48.650;8.774;2023-04-15T12:49:36;2.73;;;1.67;;
12970;SDS011;6550;48.650;8.774;2023-04-15T12:52:06;13.90;;;2.20;;
12970;SDS011;6550;48.650;8.774;2023-04-15T12:54:33;15.83;;;2.37;;
12970;SDS011;6550;48.650;8.774;2023-04-15T12:57:02;17.00;;;3.00;;
12970;SDS011;6550;48.650;8.774;2023-04-15T12:59:32;8.23;;;2.10;;
12970;SDS011;6550;48.650;8.774;2023-04-15T13:01:59;7.23;;;2.60;;
12970;SDS011;6550;48.650;8.774;2023-04-15T13:04:28;6.90;;;2.58;;
12970;SDS011;6550;48.650;8.774;2023-04-15T13:06:56;5.33;;;2.60;;
12970;SDS011;6550;48.650;8.774;2023-04-15T13:09:27;8.20;;;2.00;;
12970;SDS011;6550;48.650;8.774;2023-04-15T13:11:54;4.97;;;2.40;;
12970;SDS011;6550;48.650;8.774;2023-04-15T13:14:24;6.60;;;2.80;;
12970;SDS011;6550;48.650;8.774;2023-04-15T13:16:50;7.53;;;2.57;;
12970;SDS011;6550;48.650;8.774;2023-04-15T13:19:18;5.87;;;2.13;;
12970;SDS011;6550;48.650;8.774;2023-04-15T13:21:50;15.97;;;2.60;;
12970;SDS011;6550;48.650;8.774;2023-04-15T13:24:19;9.80;;;2.70;;
12970;SDS011;6550;48.650;8.774;2023-04-15T13:26:50;8.90;;;2.50;;
12970;SDS011;6550;48.650;8.774;2023-04-15T13:29:19;7.27;;;2.50;;
12970;SDS011;6550;48.650;8.774;2023-04-15T13:31:48;7.43;;;2.50;;
12970;SDS011;6550;48.650;8.774;2023-04-15T13:34:15;5.22;;;2.20;;
12970;SDS011;6550;48.650;8.774;2023-04-15T13:36:42;29.97;;;3.97;;
12970;SDS011;6550;48.650;8.774;2023-04-15T13:39:09;34.87;;;4.20;;
12970;SDS011;6550;48.650;8.774;2023-04-15T13:41:38;14.17;;;2.23;;
12970;SDS011;6550;48.650;8.774;2023-04-15T13:44:05;6.63;;;2.13;;
12970;SDS011;6550;48.650;8.774;2023-04-15T13:46:34;8.40;;;1.93;;
12970;SDS011;6550;48.650;8.774;2023-04-15T13:49:05;3.23;;;2.30;;
12970;SDS011;6550;48.650;8.774;2023-04-15T13:51:34;4.07;;;2.13;;
12970;SDS011;6550;48.650;8.774;2023-04-15T13:54:02;4.43;;;2.03;;
12970;SDS011;6550;48.650;8.774;2023-04-15T13:56:31;9.87;;;2.63;;
12970;SDS011;6550;48.650;8.774;2023-04-15T13:58:58;6.40;;;3.10;;
12970;SDS011;6550;48.650;8.774;2023-04-15T14:01:27;3.33;;;2.90;;
12970;SDS011;6550;48.650;8.774;2023-04-15T14:03:54;3.95;;;2.63;;
12970;SDS011;6550;48.650;8.774;2023-04-15T14:06:21;2.67;;;2.17;;
12970;SDS011;6550;48.650;8.774;2023-04-15T14:08:48;3.30;;;2.10;;
12970;SDS011;6550;48.650;8.774;2023-04-15T14:11:15;4.20;;;2.27;;
12970;SDS011;6550;48.650;8.774;2023-04-15T14:13:42;3.07;;;2.00;;
12970;SDS011;6550;48.650;8.774;2023-04-15T14:16:11;6.50;;;2.10;;
12970;SDS011;6550;48.650;8.774;2023-04-15T14:18:38;7.13;;;2.07;;
12970;SDS011;6550;48.650;8.774;2023-04-15T14:21:10;8.48;;;1.70;;
12970;SDS011;6550;48.650;8.774;2023-04-15T14:23:39;5.83;;;1.50;;
12970;SDS011;6550;48.650;8.774;2023-04-15T14:26:09;4.30;;;1.40;;
12970;SDS011;6550;48.650;8.774;2023-04-15T14:28:36;6.40;;;1.30;;
12970;SDS011;6550;48.650;8.774;2023-04-15T14:31:10;10.30;;;1.50;;
12970;SDS011;6550;48.650;8.774;2023-04-15T14:33:36;19.73;;;2.75;;
12970;SDS011;6550;48.650;8.774;2023-04-15T14:36:06;9.53;;;2.00;;
12970;SDS011;6550;48.650;8.774;2023-04-15T14:38:34;9.37;;;1.97;;
12970;SDS011;6550;48.650;8.774;2023-04-15T14:41:07;10.50;;;1.93;;
12970;SDS011;6550;48.650;8.774;2023-04-15T14:43:37;7.57;;;1.57;;
12970;SDS011;6550;48.650;8.774;2023-04-15T14:46:04;9.07;;;1.80;;
12970;SDS011;6550;48.650;8.774;2023-04-15T14:48:34;4.60;;;1.50;;
12970;SDS011;6550;48.650;8.774;2023-04-15T14:51:03;3.40;;;2.03;;
12970;SDS011;6550;48.650;8.774;2023-04-15T14:53:30;6.67;;;1.63;;
12970;SDS011;6550;48.650;8.774;2023-04-15T14:55:59;16.03;;;11.57;;
12970;SDS011;6550;48.650;8.774;2023-04-15T14:58:28;11.63;;;7.33;;
12970;SDS011;6550;48.650;8.774;2023-04-15T15:00:55;7.30;;;5.40;;
12970;SDS011;6550;48.650;8.774;2023-04-15T15:03:24;23.80;;;17.10;;
12970;SDS011;6550;48.650;8.774;2023-04-15T15:05:51;21.50;;;12.00;;
12970;SDS011;6550;48.650;8.774;2023-04-15T15:08:20;19.43;;;12.27;;
12970;SDS011;6550;48.650;8.774;2023-04-15T15:10:47;19.47;;;11.53;;
12970;SDS011;6550;48.650;8.774;2023-04-15T15:13:16;16.10;;;8.97;;
12970;SDS011;6550;48.650;8.774;2023-04-15T15:15:46;18.70;;;9.93;;
12970;SDS011;6550;48.650;8.774;2023-04-15T15:18:15;11.67;;;7.77;;
12970;SDS011;6550;48.650;8.774;2023-04-15T15:20:44;8.23;;;5.50;;
12970;SDS011;6550;48.650;8.774;2023-04-15T15:23:10;6.53;;;4.20;;
12970;SDS011;6550;48.650;8.774;2023-04-15T15:25:37;5.30;;;4.30;;
12970;SDS011;6550;48.650;8.774;2023-04-15T15:28:06;24.27;;;4.57;;
12970;SDS011;6550;48.650;8.774;2023-04-15T15:30:36;24.30;;;4.10;;
12970;SDS011;6550;48.650;8.774;2023-04-15T15:33:03;10.15;;;3.85;;
12970;SDS011;6550;48.650;8.774;2023-04-15T15:35:30;9.17;;;3.27;;
12970;SDS011;6550;48.650;8.774;2023-04-15T15:37:59;7.43;;;2.37;;
12970;SDS011;6550;48.650;8.774;2023-04-15T15:40:29;11.87;;;2.63;;
12970;SDS011;6550;48.650;8.774;2023-04-15T15:42:56;10.40;;;2.70;;
12970;SDS011;6550;48.650;8.774;2023-04-15T15:45:25;2.93;;;1.97;;
12970;SDS011;6550;48.650;8.774;2023-04-15T15:47:52;4.47;;;2.17;;